Terminal Aerodrome Forecast
Issued by NWS

Home | Current Version | Previous Version | Text Only | Print | Product List | Glossary On
Versions: 1 2 3 4 5 6 7 8 9 10 11 12 13 14
971
FTUS44 KTSA 271140
TAFBVO
TAF
KBVO 271140Z 2712/2812 00000KT P6SM VCTS SCT005 BKN035CB BKN100
      TEMPO 2712/2713 VRB05KT 6SM -TSRA BKN004CB
     FM271400 VRB03KT P6SM SCT035 BKN150
     FM271800 15007KT P6SM VCTS SCT050CB BKN100
     FM280100 VRB02KT P6SM SCT250=

USA.gov is the U.S. government's official web portal to all federal, state and local government web resources and services.